Time;durP1;ratioP1;P1;durP2;ratioP2;P2;SDS_P1;SDS_P2;PMS_P1;PMS_P2;Temp;Humidity;BMP_temperature;BMP_pressure;BME280_temperature;BME280_humidity;BME280_pressure;Samples;Min_cycle;Max_cycle;Signal;HPM_P1;HPM_P2
2023/10/31 00:01:17;;;;;;;;;;;;;;;20.35;59.10;97090.09;619941;229;65666;-69
2023/10/31 00:03:44;;;;;;;;;;;;;;;20.35;59.93;97082.09;619891;229;62984;-69
2023/10/31 00:06:12;;;;;;;;;;;;;;;20.35;59.69;97081.27;619917;229;62446;-69
2023/10/31 00:08:39;;;;;;;;;;;;;;;20.35;59.67;97078.59;619882;229;62749;-69
2023/10/31 00:11:07;;;;;;;;;;;;;;;20.34;59.91;97072.46;619897;229;62896;-69
2023/10/31 00:13:34;;;;;;;;;;;;;;;20.35;59.57;97070.59;619880;229;64603;-69
2023/10/31 00:16:02;;;;;;;;;;;;;;;20.35;60.52;97067.92;619941;229;63476;-69
2023/10/31 00:18:29;;;;;;;;;;;;;;;20.35;59.83;97057.24;619867;229;62806;-69
2023/10/31 00:20:57;;;;;;;;;;;;;;;20.34;60.59;97061.78;619902;229;62586;-69
2023/10/31 00:23:24;;;;;;;;;;;;;;;20.34;60.42;97055.65;619872;229;65478;-69
2023/10/31 00:25:52;;;;;;;;;;;;;;;20.34;60.58;97055.65;619862;229;65010;-69
2023/10/31 00:28:20;;;;;;;;;;;;;;;20.34;60.64;97050.31;619918;229;64599;-70
2023/10/31 00:30:47;;;;;;;;;;;;;;;20.34;60.44;97051.11;619876;229;65468;-69
2023/10/31 00:33:15;;;;;;;;;;;;;;;20.34;60.46;97045.77;619895;229;62805;-70
2023/10/31 00:35:43;;;;;;;;;;;;;;;20.34;61.13;97044.97;619869;229;63211;-69
2023/10/31 00:38:10;;;;;;;;;;;;;;;20.34;61.08;97044.97;619873;229;65524;-69
2023/10/31 00:40:38;;;;;;;;;;;;;;;20.35;60.84;97041.23;619898;229;65291;-69
2023/10/31 00:43:06;;;;;;;;;;;;;;;20.34;61.11;97044.97;619837;229;64833;-69
2023/10/31 00:45:33;;;;;;;;;;;;;;;20.34;60.61;97034.30;619870;229;65469;-69
2023/10/31 00:48:01;;;;;;;;;;;;;;;20.33;60.20;97038.84;619867;229;62801;-69
2023/10/31 00:50:28;;;;;;;;;;;;;;;20.34;60.55;97029.76;619883;229;64667;-69
2023/10/31 00:52:56;;;;;;;;;;;;;;;20.34;60.37;97034.30;619932;229;65408;-69
2023/10/31 00:55:24;;;;;;;;;;;;;;;20.34;60.16;97028.96;619935;229;65713;-69
2023/10/31 00:57:52;;;;;;;;;;;;;;;20.33;60.19;97030.84;619902;229;64726;-69
2023/10/31 01:00:20;;;;;;;;;;;;;;;20.34;60.83;97028.96;619886;229;65796;-69
2023/10/31 01:02:47;;;;;;;;;;;;;;;20.33;61.17;97030.04;619918;229;65763;-67
2023/10/31 01:05:15;;;;;;;;;;;;;;;20.33;60.96;97028.16;619952;229;62257;-67
2023/10/31 01:07:42;;;;;;;;;;;;;;;20.33;60.61;97024.70;619874;229;66400;-67
2023/10/31 01:10:10;;;;;;;;;;;;;;;20.33;61.27;97022.83;619912;229;62744;-67
2023/10/31 01:12:38;;;;;;;;;;;;;;;20.32;61.76;97010.53;619909;229;64966;-67
2023/10/31 01:15:06;;;;;;;;;;;;;;;20.32;62.36;97018.54;619906;229;66354;-67
2023/10/31 01:17:34;;;;;;;;;;;;;;;20.32;61.28;97020.41;619965;229;63074;-67
2023/10/31 01:20:01;;;;;;;;;;;;;;;20.32;60.87;97017.74;619958;229;62425;-67
2023/10/31 01:22:29;;;;;;;;;;;;;;;20.33;61.00;97019.36;619889;229;65306;-67
2023/10/31 01:24:57;;;;;;;;;;;;;;;20.33;61.44;97022.03;619847;229;65343;-67
2023/10/31 01:27:24;;;;;;;;;;;;;;;20.32;61.87;97020.41;619902;229;64763;-67
2023/10/31 01:29:52;;;;;;;;;;;;;;;20.32;61.75;97023.88;619901;229;63259;-67
2023/10/31 01:32:19;;;;;;;;;;;;;;;20.31;61.97;97022.28;619979;229;62754;-67
2023/10/31 01:34:47;;;;;;;;;;;;;;;20.32;61.70;97017.74;619875;229;63358;-66
2023/10/31 01:37:15;;;;;;;;;;;;;;;20.32;61.56;97018.54;619839;229;65602;-67
2023/10/31 01:39:42;;;;;;;;;;;;;;;20.32;61.54;97012.41;619925;229;62795;-67
2023/10/31 01:42:10;;;;;;;;;;;;;;;20.31;61.82;97016.95;619900;229;64895;-67
2023/10/31 01:44:38;;;;;;;;;;;;;;;20.31;61.86;97006.27;619937;229;65443;-67
2023/10/31 01:47:05;;;;;;;;;;;;;;;20.31;61.96;97008.94;619895;229;64997;-67
2023/10/31 01:49:33;;;;;;;;;;;;;;;20.31;62.13;97013.48;619915;229;62320;-67
2023/10/31 01:52:01;;;;;;;;;;;;;;;20.31;62.17;97002.81;619868;229;64855;-67
2023/10/31 01:54:31;;;;;;;;;;;;;;;20.31;62.08;97005.48;619925;229;65917;-67
2023/10/31 01:56:58;;;;;;;;;;;;;;;20.31;61.75;97006.27;619944;229;62413;-69
2023/10/31 01:59:27;;;;;;;;;;;;;;;20.31;61.93;97008.14;619897;229;65396;-69
2023/10/31 02:01:56;;;;;;;;;;;;;;;20.31;61.59;97000.94;619866;229;63143;-69
2023/10/31 02:04:24;;;;;;;;;;;;;;;20.31;61.78;97005.48;619897;229;62802;-69
2023/10/31 02:06:52;;;;;;;;;;;;;;;20.32;61.96;97004.40;619898;229;65496;-69
2023/10/31 02:09:24;;;;;;;;;;;;;;;20.31;61.56;97008.94;619962;229;64929;-69
2023/10/31 02:11:49;;;;;;;;;;;;;;;20.30;61.92;97006.55;615870;229;66591;-69
2023/10/31 02:14:17;;;;;;;;;;;;;;;20.30;61.42;97006.55;619897;229;65568;-70
2023/10/31 02:16:44;;;;;;;;;;;;;;;20.30;61.65;96996.67;619876;229;65413;-69
2023/10/31 02:19:14;;;;;;;;;;;;;;;20.30;61.68;97001.22;619891;229;62582;-69
2023/10/31 02:21:41;;;;;;;;;;;;;;;20.30;61.91;96996.67;619938;229;64135;-69
2023/10/31 02:24:09;;;;;;;;;;;;;;;20.30;62.12;96991.34;619913;229;63055;-70
2023/10/31 02:26:38;;;;;;;;;;;;;;;20.29;62.32;96994.26;619896;229;65374;-69
2023/10/31 02:29:06;;;;;;;;;;;;;;;20.29;62.48;96995.05;619857;229;62504;-69
2023/10/31 02:31:34;;;;;;;;;;;;;;;20.30;62.61;97004.68;619902;229;65703;-69
2023/10/31 02:34:02;;;;;;;;;;;;;;;20.30;62.09;97001.22;619968;229;62418;-69
2023/10/31 02:36:29;;;;;;;;;;;;;;;20.29;61.69;96994.26;619931;229;63619;-69
2023/10/31 02:38:57;;;;;;;;;;;;;;;20.29;61.21;96996.93;619891;229;62851;-69
2023/10/31 02:41:24;;;;;;;;;;;;;;;20.30;60.91;96995.88;619847;229;64912;-69
2023/10/31 02:43:54;;;;;;;;;;;;;;;20.30;61.30;96995.88;619674;229;66633;-69
2023/10/31 02:46:22;;;;;;;;;;;;;;;20.31;61.38;96994.80;619919;229;64565;-69
2023/10/31 02:48:49;;;;;;;;;;;;;;;20.29;61.36;96986.25;619944;229;62462;-69
2023/10/31 02:51:17;;;;;;;;;;;;;;;20.30;62.94;96998.55;619871;229;63080;-69
2023/10/31 02:53:45;;;;;;;;;;;;;;;20.28;63.67;96992.67;619851;229;65203;-69
2023/10/31 02:56:12;;;;;;;;;;;;;;;20.29;63.34;97005.73;619895;229;64673;-69
2023/10/31 02:58:40;;;;;;;;;;;;;;;20.27;63.03;97002.55;619941;229;62646;-69
2023/10/31 03:01:08;;;;;;;;;;;;;;;20.28;62.87;97000.67;619987;229;62664;-69
2023/10/31 03:03:35;;;;;;;;;;;;;;;20.28;63.25;97000.67;619912;229;62482;-69
2023/10/31 03:06:03;;;;;;;;;;;;;;;20.28;63.69;97008.68;619890;229;65251;-69
2023/10/31 03:08:30;;;;;;;;;;;;;;;20.27;63.42;97009.73;619894;229;64934;-69
2023/10/31 03:10:58;;;;;;;;;;;;;;;20.28;64.02;97008.68;619917;229;64596;-69
2023/10/31 03:13:25;;;;;;;;;;;;;;;20.27;63.43;97007.06;619946;229;65225;-69
2023/10/31 03:15:53;;;;;;;;;;;;;;;20.27;63.17;97004.39;619931;229;62439;-69
2023/10/31 03:18:21;;;;;;;;;;;;;;;20.27;63.61;96999.88;619905;229;64886;-69
2023/10/31 03:20:49;;;;;;;;;;;;;;;20.27;63.85;96991.05;619889;229;64860;-69
2023/10/31 03:23:17;;;;;;;;;;;;;;;20.26;63.92;97000.92;619908;229;62522;-69
2023/10/31 03:25:46;;;;;;;;;;;;;;;20.26;63.84;96995.59;619936;229;65408;-69
2023/10/31 03:28:27;;;;;;;;;;;;;;;20.26;63.89;97005.47;619876;229;62934;-69
2023/10/31 03:30:51;;;;;;;;;;;;;;;20.27;64.32;96999.05;619671;228;65734;-69
2023/10/31 03:33:18;;;;;;;;;;;;;;;20.26;64.10;96997.47;619866;229;64792;-69
2023/10/31 03:35:46;;;;;;;;;;;;;;;20.26;64.38;96997.47;619884;229;65344;-69
2023/10/31 03:38:14;;;;;;;;;;;;;;;20.26;64.47;97008.14;619906;229;65267;-69
2023/10/31 03:40:41;;;;;;;;;;;;;;;20.25;64.06;97002.01;619935;229;65515;-69
2023/10/31 03:43:09;;;;;;;;;;;;;;;20.25;63.71;97001.21;618845;229;65709;-69
2023/10/31 03:45:37;;;;;;;;;;;;;;;20.25;63.25;97007.34;617683;230;65187;-69
2023/10/31 03:48:05;;;;;;;;;;;;;;;20.25;63.02;97010.02;617650;230;65457;-69
2023/10/31 03:50:32;;;;;;;;;;;;;;;20.27;63.74;97002.55;617674;230;62596;-70
2023/10/31 03:53:00;;;;;;;;;;;;;;;20.26;64.56;97003.59;617706;230;62641;-69
2023/10/31 03:55:27;;;;;;;;;;;;;;;20.25;64.86;97004.67;617623;230;62806;-69
2023/10/31 03:57:55;;;;;;;;;;;;;;;20.25;64.43;96995.88;617679;230;65876;-69
2023/10/31 04:00:23;;;;;;;;;;;;;;;20.24;64.30;97003.05;617659;230;62711;-67
2023/10/31 04:02:50;;;;;;;;;;;;;;;20.24;64.15;96997.72;617654;230;62415;-67
2023/10/31 04:05:18;;;;;;;;;;;;;;;20.24;64.09;96997.72;617725;230;65378;-67
2023/10/31 04:07:47;;;;;;;;;;;;;;;20.24;64.30;97000.39;617670;230;62896;-67
2023/10/31 04:10:14;;;;;;;;;;;;;;;20.24;64.26;97007.59;617649;230;64880;-67
2023/10/31 04:12:42;;;;;;;;;;;;;;;20.24;64.29;97007.59;617669;230;65485;-67
2023/10/31 04:15:10;;;;;;;;;;;;;;;20.25;64.36;97009.22;617611;230;65128;-67
2023/10/31 04:17:38;;;;;;;;;;;;;;;20.24;65.13;96996.92;617706;230;64737;-67
2023/10/31 04:20:06;;;;;;;;;;;;;;;20.25;65.13;96993.20;617636;230;65238;-67
2023/10/31 04:22:33;;;;;;;;;;;;;;;20.24;65.13;96996.92;617659;230;65047;-67
2023/10/31 04:25:01;;;;;;;;;;;;;;;20.24;65.15;96991.59;617676;230;64590;-67
2023/10/31 04:27:28;;;;;;;;;;;;;;;20.23;64.62;96988.13;617661;229;66234;-67
2023/10/31 04:29:56;;;;;;;;;;;;;;;20.23;64.59;96979.32;617716;230;63355;-67
2023/10/31 04:32:23;;;;;;;;;;;;;;;20.23;64.80;96981.99;617721;230;62511;-67
2023/10/31 04:34:51;;;;;;;;;;;;;;;20.23;65.16;96979.32;617719;230;62929;-67
2023/10/31 04:37:18;;;;;;;;;;;;;;;20.23;65.06;96976.66;617700;230;62668;-67
2023/10/31 04:39:46;;;;;;;;;;;;;;;20.22;64.73;96980.40;617697;230;62565;-67
2023/10/31 04:42:13;;;;;;;;;;;;;;;20.22;64.90;96969.73;617749;229;63281;-67
2023/10/31 04:44:41;;;;;;;;;;;;;;;20.23;64.82;96973.98;619939;229;63401;-67
2023/10/31 04:47:08;;;;;;;;;;;;;;;20.23;64.72;96968.65;619898;229;64916;-67
2023/10/31 04:49:36;;;;;;;;;;;;;;;20.22;64.97;96973.19;619927;229;65501;-67
2023/10/31 04:52:04;;;;;;;;;;;;;;;20.22;64.87;96970.52;619912;229;65070;-67
2023/10/31 04:54:31;;;;;;;;;;;;;;;20.22;64.80;96956.39;619912;229;64752;-67
2023/10/31 04:56:59;;;;;;;;;;;;;;;20.23;64.87;96963.31;619913;229;65707;-67
2023/10/31 04:59:26;;;;;;;;;;;;;;;20.22;64.78;96961.72;619939;229;65257;-67
2023/10/31 05:01:55;;;;;;;;;;;;;;;20.21;65.01;96950.22;619929;229;64762;-67
2023/10/31 05:04:22;;;;;;;;;;;;;;;20.21;65.01;96955.56;619886;229;62603;-69
2023/10/31 05:06:50;;;;;;;;;;;;;;;20.21;64.97;96952.09;619927;229;65236;-70
2023/10/31 05:09:19;;;;;;;;;;;;;;;20.21;65.32;96950.22;619922;229;65558;-70
2023/10/31 05:11:47;;;;;;;;;;;;;;;20.21;65.17;96954.77;619905;229;66533;-69
2023/10/31 05:14:14;;;;;;;;;;;;;;;20.21;64.87;96949.42;619924;229;64989;-69
2023/10/31 05:16:45;;;;;;;;;;;;;;;20.22;65.27;96945.71;619925;229;64553;-69
2023/10/31 05:19:12;;;;;;;;;;;;;;;20.21;65.04;96944.09;619894;229;62966;-69
2023/10/31 05:21:40;;;;;;;;;;;;;;;20.20;64.92;96945.17;619937;229;65201;-69
2023/10/31 05:24:08;;;;;;;;;;;;;;;20.21;64.87;96950.22;619918;229;63552;-69
2023/10/31 05:26:36;;;;;;;;;;;;;;;20.20;64.71;96953.17;619912;229;63237;-69
2023/10/31 05:29:03;;;;;;;;;;;;;;;20.20;64.70;96950.51;619920;229;62949;-70
2023/10/31 05:31:31;;;;;;;;;;;;;;;20.20;64.87;96948.63;619898;229;62516;-69
2023/10/31 05:33:58;;;;;;;;;;;;;;;20.20;64.98;96959.30;619927;229;63145;-69
2023/10/31 05:36:27;;;;;;;;;;;;;;;20.21;64.84;96968.11;619896;229;66082;-69
2023/10/31 05:38:55;;;;;;;;;;;;;;;20.20;65.07;96971.85;619901;229;62625;-67
2023/10/31 05:41:23;;;;;;;;;;;;;;;20.20;64.99;96971.85;619898;229;62920;-67
2023/10/31 05:43:50;;;;;;;;;;;;;;;20.20;65.15;96975.31;618248;229;65321;-67
2023/10/31 05:46:18;;;;;;;;;;;;;;;20.19;65.09;96976.39;617695;230;64579;-67
2023/10/31 05:48:46;;;;;;;;;;;;;;;20.20;65.17;96969.19;617717;230;65104;-67
2023/10/31 05:51:15;;;;;;;;;;;;;;;20.20;65.45;96974.52;617677;229;62956;-67
2023/10/31 05:53:43;;;;;;;;;;;;;;;20.18;65.30;96970.23;617663;230;62599;-67
2023/10/31 05:56:12;;;;;;;;;;;;;;;20.19;65.15;96976.39;617677;230;65524;-67
2023/10/31 05:58:40;;;;;;;;;;;;;;;20.18;65.05;96978.23;617657;230;65775;-67
2023/10/31 06:01:08;;;;;;;;;;;;;;;20.18;65.34;96975.57;617738;230;64867;-67
2023/10/31 06:03:36;;;;;;;;;;;;;;;20.19;65.31;96989.73;617652;230;65434;-67
2023/10/31 06:06:04;;;;;;;;;;;;;;;20.18;65.30;96994.25;617653;230;63177;-67
2023/10/31 06:08:31;;;;;;;;;;;;;;;20.18;65.31;96988.11;617692;230;62692;-67
2023/10/31 06:11:00;;;;;;;;;;;;;;;20.19;64.95;96995.08;617664;230;62907;-67
2023/10/31 06:13:28;;;;;;;;;;;;;;;20.18;65.26;96980.91;617714;230;63783;-65
2023/10/31 06:15:55;;;;;;;;;;;;;;;20.18;65.55;96978.23;617693;230;62540;-65
2023/10/31 06:18:23;;;;;;;;;;;;;;;20.18;65.45;96983.58;617658;230;63762;-65
2023/10/31 06:20:51;;;;;;;;;;;;;;;20.18;65.54;96982.78;617690;230;65291;-65
2023/10/31 06:23:18;;;;;;;;;;;;;;;20.18;65.11;96982.78;615344;230;60471;-65
2023/10/31 06:25:46;;;;;;;;;;;;;;;20.17;62.82;96997.99;617692;230;63124;-65
2023/10/31 06:28:14;;;;;;;;;;;;;;;20.18;64.68;96988.91;617691;230;65429;-65
2023/10/31 06:30:41;;;;;;;;;;;;;;;20.18;65.00;96988.91;617654;230;64571;-66
2023/10/31 06:33:10;;;;;;;;;;;;;;;20.19;64.82;96995.08;617653;230;63179;-65
2023/10/31 06:35:37;;;;;;;;;;;;;;;20.20;65.22;97002.00;617680;230;65309;-65
2023/10/31 06:38:05;;;;;;;;;;;;;;;20.21;65.22;96998.25;617669;230;64554;-65
2023/10/31 06:40:32;;;;;;;;;;;;;;;20.21;65.27;96997.45;617726;230;63193;-65
2023/10/31 06:43:00;;;;;;;;;;;;;;;20.20;64.94;96995.87;617599;229;65215;-65
2023/10/31 06:45:28;;;;;;;;;;;;;;;20.21;64.81;96994.79;617654;230;64756;-65
2023/10/31 06:47:55;;;;;;;;;;;;;;;20.21;64.78;96981.45;617597;229;65435;-65
2023/10/31 06:50:23;;;;;;;;;;;;;;;20.21;64.76;96986.78;617653;230;63778;-65
2023/10/31 06:52:50;;;;;;;;;;;;;;;20.21;64.74;96981.45;617696;230;64897;-65
2023/10/31 06:55:18;;;;;;;;;;;;;;;20.22;64.79;96980.40;617644;230;65680;-65
2023/10/31 06:57:46;;;;;;;;;;;;;;;20.22;65.14;96972.39;617615;230;63046;-65
2023/10/31 07:00:14;;;;;;;;;;;;;;;20.22;64.98;96972.39;617612;228;62495;-65
2023/10/31 07:02:41;;;;;;;;;;;;;;;20.23;64.92;96963.31;617653;230;65419;-65
2023/10/31 07:05:09;;;;;;;;;;;;;;;20.22;65.60;96959.84;617687;230;62223;-65
2023/10/31 07:07:37;;;;;;;;;;;;;;;20.22;65.25;96959.05;617491;227;64571;-65
2023/10/31 07:10:05;;;;;;;;;;;;;;;20.23;65.46;96955.30;618994;227;65227;-64
2023/10/31 07:12:33;;;;;;;;;;;;;;;20.23;65.41;96949.97;617879;227;65461;-66
2023/10/31 07:15:00;;;;;;;;;;;;;;;20.23;65.51;96949.97;624759;227;64605;-64
2023/10/31 07:17:28;;;;;;;;;;;;;;;20.23;65.57;96950.77;624231;227;65034;-64
2023/10/31 07:19:55;;;;;;;;;;;;;;;20.23;65.30;96955.30;624663;227;63721;-65
2023/10/31 07:22:24;;;;;;;;;;;;;;;20.23;66.10;96952.64;624477;227;62411;-65
2023/10/31 07:24:52;;;;;;;;;;;;;;;20.23;65.88;96941.97;624657;227;65935;-65
2023/10/31 07:27:19;;;;;;;;;;;;;;;20.22;65.80;96935.04;624686;227;62854;-65
2023/10/31 07:29:47;;;;;;;;;;;;;;;20.22;65.86;96941.17;624782;227;64334;-65
2023/10/31 07:32:15;;;;;;;;;;;;;;;20.22;65.67;96935.04;624685;227;65256;-65
2023/10/31 07:34:42;;;;;;;;;;;;;;;20.22;65.63;96929.70;624680;227;63225;-67
2023/10/31 07:37:10;;;;;;;;;;;;;;;20.22;65.27;96930.50;624618;227;64672;-64
2023/10/31 07:39:37;;;;;;;;;;;;;;;20.21;65.18;96925.41;624639;227;64309;-64
2023/10/31 07:42:05;;;;;;;;;;;;;;;20.21;64.55;96912.07;624718;226;65223;-65
2023/10/31 07:44:33;;;;;;;;;;;;;;;20.22;65.30;96908.35;627039;226;62697;-62
2023/10/31 07:47:00;;;;;;;;;;;;;;;20.22;65.98;96908.35;626980;226;63100;-64
2023/10/31 07:49:28;;;;;;;;;;;;;;;20.22;65.68;96911.81;627034;226;65350;-64
2023/10/31 07:51:57;;;;;;;;;;;;;;;20.22;64.50;96903.02;626976;226;64725;-65
2023/10/31 07:54:24;;;;;;;;;;;;;;;20.21;64.71;96894.19;626963;226;62951;-68
2023/10/31 07:56:52;;;;;;;;;;;;;;;20.21;64.28;96894.19;627021;226;62914;-65
2023/10/31 07:59:19;;;;;;;;;;;;;;;20.21;65.49;96886.19;627005;226;64741;-65
2023/10/31 08:01:48;;;;;;;;;;;;;;;20.22;64.55;96884.34;626979;226;63333;-65
2023/10/31 08:04:17;;;;;;;;;;;;;;;20.21;64.89;96874.72;627024;226;65238;-65
2023/10/31 08:06:44;;;;;;;;;;;;;;;20.21;65.29;96872.05;627074;226;63248;-64
2023/10/31 08:09:12;;;;;;;;;;;;;;;20.21;64.91;96853.37;626958;226;66303;-65
2023/10/31 08:11:39;;;;;;;;;;;;;;;20.22;57.71;96860.33;627026;226;65127;-64
2023/10/31 08:14:07;;;;;;;;;;;;;;;20.27;61.51;96846.95;627032;226;62401;-64
2023/10/31 08:16:35;;;;;;;;;;;;;;;20.30;61.76;96844.56;627029;226;65987;-64
2023/10/31 08:19:03;;;;;;;;;;;;;;;20.31;61.90;96835.47;627072;226;64735;-64
2023/10/31 08:21:34;;;;;;;;;;;;;;;20.34;61.51;96839.47;627015;226;65942;-65
2023/10/31 08:24:00;;;;;;;;;;;;;;;20.35;61.23;96836.55;626952;225;63037;-64
2023/10/31 08:26:27;;;;;;;;;;;;;;;20.37;61.15;96831.72;627068;226;65745;-65
2023/10/31 08:28:55;;;;;;;;;;;;;;;20.39;60.40;96824.24;627017;226;64689;-64
2023/10/31 08:31:23;;;;;;;;;;;;;;;20.41;60.26;96815.98;627011;226;65428;-66
2023/10/31 08:33:50;;;;;;;;;;;;;;;20.42;59.63;96812.23;627058;226;64963;-65
2023/10/31 08:36:18;;;;;;;;;;;;;;;20.45;59.88;96809.01;627025;226;62399;-65
2023/10/31 08:38:45;;;;;;;;;;;;;;;20.46;59.95;96793.79;627070;226;63159;-65
2023/10/31 08:41:18;;;;;;;;;;;;;;;20.48;59.91;96778.30;627019;226;65321;-65
2023/10/31 08:43:42;;;;;;;;;;;;;;;20.50;60.12;96781.51;625345;225;62717;-65
2023/10/31 08:46:10;;;;;;;;;;;;;;;20.51;59.83;96767.88;624572;227;65236;-65
2023/10/31 08:48:38;;;;;;;;;;;;;;;20.52;59.15;96760.69;624783;227;62793;-65
2023/10/31 08:51:06;;;;;;;;;;;;;;;20.53;59.22;96749.75;624688;227;64669;-64
2023/10/31 08:53:33;;;;;;;;;;;;;;;20.54;59.51;96747.88;624799;227;65679;-64
2023/10/31 08:56:01;;;;;;;;;;;;;;;20.55;59.94;96742.27;624791;227;62949;-65
2023/10/31 08:58:29;;;;;;;;;;;;;;;20.55;60.07;96731.59;624688;227;64562;-66
2023/10/31 09:00:57;;;;;;;;;;;;;;;20.55;59.84;96726.25;624782;227;64081;-65
2023/10/31 09:03:24;;;;;;;;;;;;;;;20.56;59.84;96724.37;624770;227;62854;-68
2023/10/31 09:05:52;;;;;;;;;;;;;;;20.56;59.66;96716.37;624734;227;62395;-65
2023/10/31 09:08:19;;;;;;;;;;;;;;;20.56;59.32;96708.36;624793;227;63196;-65
2023/10/31 09:10:47;;;;;;;;;;;;;;;20.56;59.02;96706.48;624725;227;62897;-65
2023/10/31 09:13:14;;;;;;;;;;;;;;;20.56;59.70;96689.67;624679;227;64553;-65
2023/10/31 09:15:42;;;;;;;;;;;;;;;20.55;59.80;96688.88;624767;227;65376;-65
2023/10/31 09:18:09;;;;;;;;;;;;;;;20.56;60.31;96685.13;624747;227;64973;-67
2023/10/31 09:20:37;;;;;;;;;;;;;;;20.56;60.40;96669.11;624753;227;62659;-63
2023/10/31 09:23:05;;;;;;;;;;;;;;;20.54;58.63;96660.59;624762;227;62925;-66
2023/10/31 09:25:32;;;;;;;;;;;;;;;20.57;58.99;96665.38;624709;227;65547;-64
2023/10/31 09:28:01;;;;;;;;;;;;;;;20.60;60.25;96664.83;624755;227;63374;-67
2023/10/31 09:30:28;;;;;;;;;;;;;;;20.61;59.56;96658.40;624790;227;63000;-65
2023/10/31 09:32:56;;;;;;;;;;;;;;;20.64;59.40;96657.05;624756;227;62696;-65
2023/10/31 09:35:23;;;;;;;;;;;;;;;20.66;58.80;96648.78;624717;227;62402;-67
2023/10/31 09:37:51;;;;;;;;;;;;;;;20.69;59.46;96637.54;624799;227;65395;-66
2023/10/31 09:40:19;;;;;;;;;;;;;;;20.69;59.71;96641.00;624695;227;63270;-65
2023/10/31 09:42:46;;;;;;;;;;;;;;;20.70;58.86;96629.23;625358;226;62372;-64
2023/10/31 09:45:14;;;;;;;;;;;;;;;20.72;58.42;96632.43;627050;226;63347;-65
2023/10/31 09:47:42;;;;;;;;;;;;;;;20.74;59.04;96630.29;627014;226;65142;-65
2023/10/31 09:50:10;;;;;;;;;;;;;;;20.75;58.97;96633.75;627051;226;62290;-64
2023/10/31 09:52:38;;;;;;;;;;;;;;;20.76;58.94;96629.99;627016;226;62900;-64
2023/10/31 09:55:06;;;;;;;;;;;;;;;20.75;57.66;96629.20;626934;226;65211;-65
2023/10/31 09:57:34;;;;;;;;;;;;;;;20.77;59.57;96620.92;627044;226;64721;-64
2023/10/31 10:00:01;;;;;;;;;;;;;;;20.75;60.19;96623.07;625880;226;62624;-64
2023/10/31 10:02:31;;;;;;;;;;;;;;;20.75;59.91;96623.07;626807;225;43837;-65
2023/10/31 10:04:59;;;;;;;;;;;;;;;20.74;59.77;96621.48;626978;226;64602;-64
2023/10/31 10:07:27;;;;;;;;;;;;;;;20.73;60.03;96617.20;627002;226;65710;-65
2023/10/31 10:09:56;;;;;;;;;;;;;;;20.71;60.32;96614.83;626910;226;64980;-63
2023/10/31 10:12:24;;;;;;;;;;;;;;;20.72;60.12;96608.40;627012;226;64877;-63
2023/10/31 10:14:51;;;;;;;;;;;;;;;20.72;59.86;96607.61;627052;226;65196;-68
2023/10/31 10:17:21;;;;;;;;;;;;;;;20.72;59.13;96597.72;626936;226;65925;-66
2023/10/31 10:19:48;;;;;;;;;;;;;;;20.74;59.43;96592.11;626807;225;64658;-65
2023/10/31 10:22:17;;;;;;;;;;;;;;;20.72;59.27;96586.24;627002;226;65352;-64
2023/10/31 10:24:45;;;;;;;;;;;;;;;20.74;59.52;96579.55;626946;226;62815;-64
2023/10/31 10:27:13;;;;;;;;;;;;;;;20.73;59.29;96583.28;626969;226;62423;-63
2023/10/31 10:29:41;;;;;;;;;;;;;;;20.72;59.46;96579.03;626977;226;63011;-64
2023/10/31 10:32:09;;;;;;;;;;;;;;;20.73;59.62;96582.48;626994;226;65405;-63
2023/10/31 10:34:36;;;;;;;;;;;;;;;20.73;59.77;96582.48;626991;226;64642;-64
2023/10/31 10:37:06;;;;;;;;;;;;;;;20.73;59.51;96582.48;626982;226;65401;-64
2023/10/31 10:39:35;;;;;;;;;;;;;;;20.72;59.42;96591.59;627000;226;65379;-64
2023/10/31 10:42:04;;;;;;;;;;;;;;;20.72;59.99;96591.59;626989;226;62537;-64
2023/10/31 10:44:33;;;;;;;;;;;;;;;20.71;60.19;96581.99;626851;225;63908;-64
2023/10/31 10:47:04;;;;;;;;;;;;;;;20.71;60.25;96579.32;627060;226;64940;-64
2023/10/31 10:49:40;;;;;;;;;;;;;;;20.70;60.21;96575.04;627026;226;64641;-66
2023/10/31 10:52:06;;;;;;;;;;;;;;;20.70;60.16;96569.70;626325;225;65733;-65
2023/10/31 10:54:35;;;;;;;;;;;;;;;20.70;60.51;96570.48;626933;225;63219;-64
2023/10/31 10:57:05;;;;;;;;;;;;;;;20.69;60.61;96571.58;626946;225;63541;-67
2023/10/31 10:59:37;;;;;;;;;;;;;;;20.70;60.32;96573.16;626328;226;66684;-64
2023/10/31 11:02:06;;;;;;;;;;;;;;;20.70;60.67;96567.82;626933;225;63015;-64
2023/10/31 11:04:34;;;;;;;;;;;;;;;20.68;61.26;96561.16;626983;226;62432;-64
2023/10/31 11:07:03;;;;;;;;;;;;;;;20.67;61.05;96568.38;626979;226;65324;-63
2023/10/31 11:09:31;;;;;;;;;;;;;;;20.67;60.90;96564.92;627021;226;62574;-64
2023/10/31 11:11:59;;;;;;;;;;;;;;;20.68;60.97;96561.16;626950;226;65390;-64
2023/10/31 11:14:27;;;;;;;;;;;;;;;20.66;60.67;96552.66;626987;226;64846;-64
2023/10/31 11:16:56;;;;;;;;;;;;;;;20.65;60.50;96551.05;627026;226;64736;-64
2023/10/31 11:19:25;;;;;;;;;;;;;;;20.64;60.34;96544.12;626955;226;62630;-64
2023/10/31 11:21:56;;;;;;;;;;;;;;;20.64;60.31;96542.25;627035;226;65459;-64
2023/10/31 11:24:24;;;;;;;;;;;;;;;20.64;60.03;96533.45;626890;226;65071;-65
2023/10/31 11:26:52;;;;;;;;;;;;;;;20.64;59.97;96547.58;620804;226;64615;-64
2023/10/31 11:29:20;;;;;;;;;;;;;;;20.65;59.83;96537.70;619866;229;64942;-64
2023/10/31 11:31:48;;;;;;;;;;;;;;;20.65;59.45;96532.36;619910;229;64752;-64
2023/10/31 11:34:18;;;;;;;;;;;;;;;20.65;59.84;96533.15;619836;229;62706;-64
2023/10/31 11:36:49;;;;;;;;;;;;;;;20.66;59.39;96536.64;619850;229;65450;-64
2023/10/31 11:39:20;;;;;;;;;;;;;;;20.66;59.29;96528.62;619822;229;64044;-64
2023/10/31 11:41:52;;;;;;;;;;;;;;;20.65;59.42;96527.02;619775;228;62578;-64
2023/10/31 11:44:21;;;;;;;;;;;;;;;20.65;59.37;96522.47;619802;229;63167;-64
2023/10/31 11:46:52;;;;;;;;;;;;;;;20.65;59.28;96522.47;619813;229;62924;-64
2023/10/31 11:49:21;;;;;;;;;;;;;;;20.66;59.29;96515.28;619753;229;64747;-64
2023/10/31 11:51:50;;;;;;;;;;;;;;;20.64;59.25;96515.55;615415;228;65541;-64
2023/10/31 11:54:18;;;;;;;;;;;;;;;20.65;59.48;96511.00;619895;229;65140;-64
2023/10/31 11:56:47;;;;;;;;;;;;;;;20.66;59.71;96504.59;619792;229;64700;-64
2023/10/31 11:59:14;;;;;;;;;;;;;;;20.65;59.55;96494.98;619724;228;65146;-64
2023/10/31 12:01:46;;;;;;;;;;;;;;;20.65;59.70;96494.98;619882;229;63886;-64
2023/10/31 12:04:26;;;;;;;;;;;;;;;20.64;59.41;96493.39;619847;229;64996;-65
2023/10/31 12:07:00;;;;;;;;;;;;;;;20.62;59.86;96493.66;619863;229;65642;-65
2023/10/31 12:09:28;;;;;;;;;;;;;;;20.63;59.35;96491.81;619764;229;65644;-65
2023/10/31 12:11:56;;;;;;;;;;;;;;;20.62;59.46;96496.33;619847;229;64547;-63
2023/10/31 12:14:23;;;;;;;;;;;;;;;20.63;59.25;96492.61;619797;229;63360;-63
2023/10/31 12:16:51;;;;;;;;;;;;;;;20.63;59.47;96497.16;619790;229;63076;-63
2023/10/31 12:19:20;;;;;;;;;;;;;;;20.63;59.77;96486.48;619775;229;64640;-62
2023/10/31 12:21:49;;;;;;;;;;;;;;;20.60;60.12;96479.82;619815;229;62995;-63
2023/10/31 12:24:17;;;;;;;;;;;;;;;20.58;59.47;96480.09;619780;229;63172;-62
2023/10/31 12:26:46;;;;;;;;;;;;;;;20.57;59.85;96478.51;619824;229;64670;-62
2023/10/31 12:29:15;;;;;;;;;;;;;;;20.58;59.90;96474.75;619708;229;62835;-63
2023/10/31 12:31:53;;;;;;;;;;;;;;;20.59;59.54;96478.21;619762;229;63769;-63
2023/10/31 12:34:22;;;;;;;;;;;;;;;20.59;59.23;96472.87;622209;226;64593;-63
2023/10/31 12:36:51;;;;;;;;;;;;;;;20.58;58.99;96472.08;621729;226;63393;-63
2023/10/31 12:39:20;;;;;;;;;;;;;;;20.61;59.29;96468.84;623554;226;62989;-64
2023/10/31 12:41:47;;;;;;;;;;;;;;;20.60;59.51;96467.27;619789;229;64733;-64
2023/10/31 12:44:16;;;;;;;;;;;;;;;20.60;59.40;96461.13;619699;226;65712;-64
2023/10/31 12:46:44;;;;;;;;;;;;;;;20.59;59.53;96460.31;619768;229;64879;-63
2023/10/31 12:49:17;;;;;;;;;;;;;;;20.62;59.45;96469.64;619807;229;64589;-64
2023/10/31 12:52:00;;;;;;;;;;;;;;;20.63;59.01;96470.45;619539;226;65443;-64